Time;durP1;ratioP1;P1;durP2;ratioP2;P2;SDS_P1;SDS_P2;PMS_P1;PMS_P2;Temp;Humidity;BMP_temperature;BMP_pressure;BME280_temperature;BME280_humidity;BME280_pressure;Samples;Min_cycle;Max_cycle;Signal;HPM_P1;HPM_P2
2023/08/12 00:01:21;;;;;;;;;;;;;;;27.28;46.87;97236.47;4217178;28;5629;-61
2023/08/12 00:03:24;;;;;;;;;;;;;;;27.27;46.75;97232.13;4218008;28;5691;-62
2023/08/12 00:05:27;;;;;;;;;;;;;;;27.27;46.90;97232.13;4218121;28;5627;-62
2023/08/12 00:07:30;;;;;;;;;;;;;;;27.26;46.83;97222.38;4218015;28;5768;-62
2023/08/12 00:09:33;;;;;;;;;;;;;;;27.26;46.93;97225.09;4218171;28;5620;-62
2023/08/12 00:11:36;;;;;;;;;;;;;;;27.27;46.95;97224.00;4219926;28;5592;-62
2023/08/12 00:13:39;;;;;;;;;;;;;;;27.25;47.11;97226.19;4217821;28;5605;-62
2023/08/12 00:15:42;;;;;;;;;;;;;;;27.25;47.17;97231.63;4217839;28;5723;-61
2023/08/12 00:17:47;;;;;;;;;;;;;;;27.25;46.67;97228.91;4218326;28;5702;-61
2023/08/12 00:19:49;;;;;;;;;;;;;;;27.25;46.83;97225.38;4217936;28;5612;-62
2023/08/12 00:21:53;;;;;;;;;;;;;;;27.25;47.08;97228.09;4217943;28;6198;-62
2023/08/12 00:23:55;;;;;;;;;;;;;;;27.24;47.04;97221.06;4217816;28;7095;-61
2023/08/12 00:25:59;;;;;;;;;;;;;;;27.23;47.06;97220.25;4218013;28;5628;-62
2023/08/12 00:28:02;;;;;;;;;;;;;;;27.24;47.19;97218.34;4218217;28;5623;-62
2023/08/12 00:30:06;;;;;;;;;;;;;;;27.24;47.20;97219.16;4217782;28;5617;-62
2023/08/12 00:32:09;;;;;;;;;;;;;;;27.25;47.22;97220.78;4209173;28;5596;-62
2023/08/12 00:34:14;;;;;;;;;;;;;;;27.25;47.30;97225.38;4214246;28;5608;-62
2023/08/12 00:36:16;;;;;;;;;;;;;;;27.26;47.37;97218.88;4216285;28;5617;-61
2023/08/12 00:38:19;;;;;;;;;;;;;;;27.25;47.50;97226.19;4221126;28;5732;-62
2023/08/12 00:40:24;;;;;;;;;;;;;;;27.25;47.73;97223.47;4217751;28;5600;-61
2023/08/12 00:42:25;;;;;;;;;;;;;;;27.26;47.75;97224.28;4217589;28;5604;-62
2023/08/12 00:44:28;;;;;;;;;;;;;;;27.27;48.03;97228.63;4217667;28;5624;-61
2023/08/12 00:46:31;;;;;;;;;;;;;;;27.26;48.05;97227.81;4217835;28;5754;-61
2023/08/12 00:48:34;;;;;;;;;;;;;;;27.26;48.38;97225.09;4216682;28;5676;-61
2023/08/12 00:50:40;;;;;;;;;;;;;;;27.28;48.74;97225.63;4217459;28;5609;-61
2023/08/12 00:52:43;;;;;;;;;;;;;;;27.30;48.63;97227.25;4217419;28;6627;-62
2023/08/12 00:54:46;;;;;;;;;;;;;;;27.30;49.07;97221.81;4217385;28;5708;-62
2023/08/12 00:56:50;;;;;;;;;;;;;;;27.27;49.41;97218.56;4208972;28;5638;-62
2023/08/12 00:58:56;;;;;;;;;;;;;;;27.28;49.63;97222.91;4217606;28;5505;-63
2023/08/12 01:00:59;;;;;;;;;;;;;;;27.32;49.68;97230.47;4217392;28;5604;-62
2023/08/12 01:03:02;;;;;;;;;;;;;;;27.31;49.83;97212.59;4216580;28;5116;-62
2023/08/12 01:05:06;;;;;;;;;;;;;;;27.31;50.17;97213.38;4216702;28;5645;-62
2023/08/12 01:07:11;;;;;;;;;;;;;;;27.32;50.61;97219.63;4217595;28;5605;-62
2023/08/12 01:09:14;;;;;;;;;;;;;;;27.32;50.56;97214.19;4217344;28;5616;-62
2023/08/12 01:11:22;;;;;;;;;;;;;;;27.31;50.71;97218.81;4199357;28;5678;-62
2023/08/12 01:13:32;;;;;;;;;;;;;;;27.33;51.13;97215.81;4216765;28;5620;-62
2023/08/12 01:15:36;;;;;;;;;;;;;;;27.34;51.33;97214.72;4216315;28;5722;-61
2023/08/12 01:17:43;;;;;;;;;;;;;;;27.35;51.55;97219.03;4217105;28;5741;-63
2023/08/12 01:19:48;;;;;;;;;;;;;;;27.35;51.90;97219.03;4215877;28;5726;-63
2023/08/12 01:21:53;;;;;;;;;;;;;;;27.34;52.06;97222.84;4217007;28;5804;-60
2023/08/12 01:23:58;;;;;;;;;;;;;;;27.34;52.52;97225.56;4216981;28;5713;-62
2023/08/12 01:26:01;;;;;;;;;;;;;;;27.33;52.50;97221.25;4214330;28;5841;-62
2023/08/12 01:28:04;;;;;;;;;;;;;;;27.32;52.83;97217.72;4217166;28;5633;-62
2023/08/12 01:30:10;;;;;;;;;;;;;;;27.32;52.80;97225.06;4215504;28;5796;-62
2023/08/12 01:32:23;;;;;;;;;;;;;;;27.32;53.17;97222.34;4213426;28;5608;-62
2023/08/12 01:34:34;;;;;;;;;;;;;;;27.31;53.09;97218.81;4216736;28;5608;-62
2023/08/12 01:36:40;;;;;;;;;;;;;;;27.30;53.31;97214.50;4217289;28;5746;-62
2023/08/12 01:38:45;;;;;;;;;;;;;;;27.31;53.34;97218.81;4216797;28;5732;-63
2023/08/12 01:40:51;;;;;;;;;;;;;;;27.30;53.35;97213.69;4209682;28;5687;-62
2023/08/12 01:42:55;;;;;;;;;;;;;;;27.30;53.43;97216.41;4216648;28;5827;-62
2023/08/12 01:44:59;;;;;;;;;;;;;;;27.28;53.63;97220.19;4217164;28;5687;-62
2023/08/12 01:47:02;;;;;;;;;;;;;;;27.28;53.67;97220.19;4216932;28;7824;-62
2023/08/12 01:49:07;;;;;;;;;;;;;;;27.28;53.52;97222.91;4217003;28;5612;-62
2023/08/12 01:51:10;;;;;;;;;;;;;;;27.26;53.66;97225.09;4217018;28;5838;-62
2023/08/12 01:53:13;;;;;;;;;;;;;;;27.27;53.62;97226.72;4217031;28;5669;-62
2023/08/12 01:55:16;;;;;;;;;;;;;;;27.25;53.66;97228.91;4216890;28;5675;-63
2023/08/12 01:57:20;;;;;;;;;;;;;;;27.23;53.65;97216.75;4216779;28;5620;-63
2023/08/12 01:59:23;;;;;;;;;;;;;;;27.23;53.36;97224.88;4216824;28;5621;-62
2023/08/12 02:01:26;;;;;;;;;;;;;;;27.22;53.52;97215.94;4216666;28;5823;-62
2023/08/12 02:03:29;;;;;;;;;;;;;;;27.22;53.36;97220.56;4216837;28;5609;-63
2023/08/12 02:05:31;;;;;;;;;;;;;;;27.20;53.36;97212.69;4216835;28;5691;-63
2023/08/12 02:07:34;;;;;;;;;;;;;;;27.20;53.14;97212.69;4217066;28;5612;-62
2023/08/12 02:09:37;;;;;;;;;;;;;;;27.19;53.18;97221.13;4216866;28;5630;-62
2023/08/12 02:11:40;;;;;;;;;;;;;;;27.18;52.85;97225.75;4216786;28;5691;-62
2023/08/12 02:13:43;;;;;;;;;;;;;;;27.17;52.63;97218.69;4216190;28;5611;-62
2023/08/12 02:15:46;;;;;;;;;;;;;;;27.17;52.43;97218.69;4219581;28;5609;-62
2023/08/12 02:17:48;;;;;;;;;;;;;;;27.16;52.29;97211.66;4220071;28;5818;-62
2023/08/12 02:19:51;;;;;;;;;;;;;;;27.16;51.98;97206.22;4218773;28;5695;-61
2023/08/12 02:21:54;;;;;;;;;;;;;;;27.15;51.85;97210.03;4220242;28;5601;-62
2023/08/12 02:23:57;;;;;;;;;;;;;;;27.14;51.48;97213.84;4220340;28;5672;-61
2023/08/12 02:26:00;;;;;;;;;;;;;;;27.13;51.29;97204.09;4220260;28;5720;-61
2023/08/12 02:28:03;;;;;;;;;;;;;;;27.12;51.07;97202.47;4220226;28;5628;-61
2023/08/12 02:30:07;;;;;;;;;;;;;;;27.13;50.71;97212.22;4220116;28;5616;-61
2023/08/12 02:32:10;;;;;;;;;;;;;;;27.12;50.61;97210.63;4219715;28;5593;-61
2023/08/12 02:34:13;;;;;;;;;;;;;;;27.11;50.47;97209.00;4210670;28;5854;-61
2023/08/12 02:36:16;;;;;;;;;;;;;;;27.08;50.07;97209.59;4218226;28;5600;-61
2023/08/12 02:38:19;;;;;;;;;;;;;;;27.05;49.78;97202.00;4215110;28;5922;-61
2023/08/12 02:40:22;;;;;;;;;;;;;;;27.04;49.45;97197.69;4209185;28;5619;-61
2023/08/12 02:42:24;;;;;;;;;;;;;;;27.05;49.44;97196.56;4216890;28;5624;-61
2023/08/12 02:44:27;;;;;;;;;;;;;;;27.06;49.06;97198.19;4219789;28;5188;-62
2023/08/12 02:46:31;;;;;;;;;;;;;;;27.07;49.06;97202.56;4219731;28;5680;-62
2023/08/12 02:48:34;;;;;;;;;;;;;;;27.08;48.84;97204.16;4219648;28;5613;-62
2023/08/12 02:50:37;;;;;;;;;;;;;;;27.09;48.79;97208.50;4217927;28;5754;-62
2023/08/12 02:52:40;;;;;;;;;;;;;;;27.09;48.79;97208.50;4219801;28;5826;-62
2023/08/12 02:54:43;;;;;;;;;;;;;;;27.10;48.43;97201.97;4219397;28;5605;-62
2023/08/12 02:56:46;;;;;;;;;;;;;;;27.09;48.23;97205.78;4219333;28;5617;-62
2023/08/12 02:58:49;;;;;;;;;;;;;;;27.09;48.29;97205.78;4219719;28;5903;-62
2023/08/12 03:00:51;;;;;;;;;;;;;;;27.09;48.37;97202.25;4218956;28;5681;-62
2023/08/12 03:02:56;;;;;;;;;;;;;;;27.11;48.04;97202.78;4219479;28;5179;-62
2023/08/12 03:04:59;;;;;;;;;;;;;;;27.11;47.97;97200.88;4219216;28;5613;-62
2023/08/12 03:07:01;;;;;;;;;;;;;;;27.11;47.96;97191.91;4219678;28;5616;-62
2023/08/12 03:09:04;;;;;;;;;;;;;;;27.10;47.96;97191.09;4219424;28;6289;-62
2023/08/12 03:11:07;;;;;;;;;;;;;;;27.11;47.82;97203.56;4210790;28;5623;-62
2023/08/12 03:13:10;;;;;;;;;;;;;;;27.12;47.92;97205.19;4202619;28;6320;-62
2023/08/12 03:15:12;;;;;;;;;;;;;;;27.12;47.75;97204.38;4203369;28;5758;-62
2023/08/12 03:17:15;;;;;;;;;;;;;;;27.12;47.79;97210.63;4219335;28;5771;-62
2023/08/12 03:19:19;;;;;;;;;;;;;;;27.12;47.60;97201.66;4219109;28;6388;-62
2023/08/12 03:21:22;;;;;;;;;;;;;;;27.11;47.72;97197.34;4219421;28;5621;-62
2023/08/12 03:23:25;;;;;;;;;;;;;;;27.12;47.59;97202.47;4217487;28;5695;-62
2023/08/12 03:25:28;;;;;;;;;;;;;;;27.12;47.56;97193.53;4217025;28;5682;-62
2023/08/12 03:27:31;;;;;;;;;;;;;;;27.12;47.63;97197.06;4201354;28;6427;-62
2023/08/12 03:29:34;;;;;;;;;;;;;;;27.12;47.62;97193.53;4202569;28;5737;-62
2023/08/12 03:31:37;;;;;;;;;;;;;;;27.11;47.32;97197.34;4210123;28;5609;-62
2023/08/12 03:33:40;;;;;;;;;;;;;;;27.11;47.45;97197.34;4218815;28;7364;-62
2023/08/12 03:35:47;;;;;;;;;;;;;;;27.12;47.61;97205.19;4202629;28;5747;-62
2023/08/12 03:37:51;;;;;;;;;;;;;;;27.10;47.46;97204.69;4219201;28;6437;-62
2023/08/12 03:39:54;;;;;;;;;;;;;;;27.10;47.50;97201.97;4218948;28;5605;-62
2023/08/12 03:41:57;;;;;;;;;;;;;;;27.10;47.36;97199.25;4217509;28;5625;-62
2023/08/12 03:43:59;;;;;;;;;;;;;;;27.10;47.28;97201.16;4219003;28;5696;-62
2023/08/12 03:46:01;;;;;;;;;;;;;;;27.10;47.37;97201.16;4211600;28;5627;-62
2023/08/12 03:48:05;;;;;;;;;;;;;;;27.11;47.39;97197.34;4203249;28;5618;-62
2023/08/12 03:50:08;;;;;;;;;;;;;;;27.11;47.38;97197.34;4213824;28;5729;-62
2023/08/12 03:52:13;;;;;;;;;;;;;;;27.10;47.19;97199.25;4218761;28;5600;-62
2023/08/12 03:54:15;;;;;;;;;;;;;;;27.11;47.25;97198.16;4218917;28;5619;-62
2023/08/12 03:56:17;;;;;;;;;;;;;;;27.10;47.36;97196.53;4214534;28;5612;-62
2023/08/12 03:58:20;;;;;;;;;;;;;;;27.09;47.29;97194.91;4197699;28;5686;-62
2023/08/12 04:00:23;;;;;;;;;;;;;;;27.10;47.20;97191.09;4217000;28;6398;-62
2023/08/12 04:02:26;;;;;;;;;;;;;;;27.09;47.04;97194.91;4207770;28;5612;-63
2023/08/12 04:04:29;;;;;;;;;;;;;;;27.09;47.27;97189.50;4218146;28;6366;-62
2023/08/12 04:06:32;;;;;;;;;;;;;;;27.09;47.09;97194.91;4211879;28;5636;-62
2023/08/12 04:08:36;;;;;;;;;;;;;;;27.08;47.00;97187.88;4218455;28;5620;-61
2023/08/12 04:10:39;;;;;;;;;;;;;;;27.10;46.88;97187.59;4218625;28;5699;-62
2023/08/12 04:13:01;;;;;;;;;;;;;;;27.09;46.85;97189.50;4215487;28;6293;-62
2023/08/12 04:15:24;;;;;;;;;;;;;;;27.08;46.93;97187.88;4216550;28;5892;-62
2023/08/12 04:17:47;;;;;;;;;;;;;;;27.09;46.92;97189.50;4210228;28;5848;-62
2023/08/12 04:20:10;;;;;;;;;;;;;;;27.08;46.87;97197.94;4217854;28;5767;-62
2023/08/12 04:22:12;;;;;;;;;;;;;;;27.08;46.60;97192.50;4218342;28;6301;-62
2023/08/12 04:24:17;;;;;;;;;;;;;;;27.07;46.65;97186.28;4218280;28;5612;-61
2023/08/12 04:26:19;;;;;;;;;;;;;;;27.07;46.86;97191.69;4219934;28;5833;-62
2023/08/12 04:28:22;;;;;;;;;;;;;;;27.06;46.67;97190.06;4218185;28;5600;-62
2023/08/12 04:30:26;;;;;;;;;;;;;;;27.07;46.53;97193.56;4217095;28;5889;-61
2023/08/12 04:32:29;;;;;;;;;;;;;;;27.07;46.63;97193.56;4217792;28;5786;-61
2023/08/12 04:34:32;;;;;;;;;;;;;;;27.06;46.66;97192.75;4217705;28;5604;-60
2023/08/12 04:36:35;;;;;;;;;;;;;;;27.07;46.74;97188.16;4218284;28;5763;-61
2023/08/12 04:38:39;;;;;;;;;;;;;;;27.06;46.90;97181.09;4217082;28;5698;-61
2023/08/12 04:40:43;;;;;;;;;;;;;;;27.06;46.85;97189.25;4218261;28;5594;-61
2023/08/12 04:42:46;;;;;;;;;;;;;;;27.04;46.65;97186.81;4217480;28;5613;-61
2023/08/12 04:44:49;;;;;;;;;;;;;;;27.04;46.86;97186.81;4217937;28;5619;-61
2023/08/12 04:46:52;;;;;;;;;;;;;;;27.04;46.93;97186.81;4205310;28;5647;-61
2023/08/12 04:48:55;;;;;;;;;;;;;;;27.04;47.05;97186.81;4211508;28;5690;-61
2023/08/12 04:51:01;;;;;;;;;;;;;;;27.01;46.93;97181.97;4211677;28;5842;-61
2023/08/12 04:53:04;;;;;;;;;;;;;;;27.04;47.21;97180.59;4217958;28;5617;-65
2023/08/12 04:55:08;;;;;;;;;;;;;;;27.02;47.37;97183.59;4199681;28;5824;-65
2023/08/12 04:57:12;;;;;;;;;;;;;;;27.03;47.23;97177.06;4204239;28;5730;-65
2023/08/12 04:59:15;;;;;;;;;;;;;;;27.05;47.32;97184.91;4200948;28;5618;-65
2023/08/12 05:01:18;;;;;;;;;;;;;;;27.04;47.11;97186.81;4214060;28;5695;-65
2023/08/12 05:03:21;;;;;;;;;;;;;;;27.05;47.33;97188.44;4217336;28;5789;-65
2023/08/12 05:05:24;;;;;;;;;;;;;;;27.05;47.47;97191.16;4217656;28;5703;-65
2023/08/12 05:07:27;;;;;;;;;;;;;;;27.05;47.39;97180.31;4218048;28;5624;-65
2023/08/12 05:09:31;;;;;;;;;;;;;;;27.04;47.41;97180.59;4217640;28;5715;-65
2023/08/12 05:11:33;;;;;;;;;;;;;;;27.05;47.51;97179.50;4216630;28;5651;-65
2023/08/12 05:13:38;;;;;;;;;;;;;;;27.06;47.70;97183.81;4217360;28;5608;-65
2023/08/12 05:15:41;;;;;;;;;;;;;;;27.05;47.45;97187.63;4213277;28;5679;-65
2023/08/12 05:17:44;;;;;;;;;;;;;;;27.04;47.68;97186.81;4201041;28;5631;-65
2023/08/12 05:19:47;;;;;;;;;;;;;;;27.03;47.58;97179.78;4217080;28;5616;-65
2023/08/12 05:21:49;;;;;;;;;;;;;;;27.02;47.76;97183.59;4217580;28;5624;-65
2023/08/12 05:23:52;;;;;;;;;;;;;;;27.03;47.81;97184.41;4217396;28;5612;-65
2023/08/12 05:25:55;;;;;;;;;;;;;;;27.03;47.81;97182.50;4216661;28;5601;-65
2023/08/12 05:27:58;;;;;;;;;;;;;;;27.03;47.95;97179.78;4202759;28;6320;-65
2023/08/12 05:30:02;;;;;;;;;;;;;;;27.01;48.06;97179.25;4217566;28;5842;-65
2023/08/12 05:32:05;;;;;;;;;;;;;;;27.01;47.89;97173.81;4212808;28;7671;-65
2023/08/12 05:34:08;;;;;;;;;;;;;;;27.03;47.97;97177.06;4216970;28;5605;-65
2023/08/12 05:36:11;;;;;;;;;;;;;;;27.03;48.20;97170.84;4217506;28;5177;-65
2023/08/12 05:38:14;;;;;;;;;;;;;;;27.02;48.16;97167.31;4217405;28;5609;-65
2023/08/12 05:40:17;;;;;;;;;;;;;;;27.02;48.17;97171.94;4217233;28;5700;-65
2023/08/12 05:42:20;;;;;;;;;;;;;;;27.03;48.14;97173.56;4214105;28;5613;-65
2023/08/12 05:44:23;;;;;;;;;;;;;;;27.02;48.30;97178.16;4217255;28;5600;-65
2023/08/12 05:46:27;;;;;;;;;;;;;;;27.02;48.24;97178.16;4213067;28;5798;-65
2023/08/12 05:48:30;;;;;;;;;;;;;;;27.01;48.28;97176.53;4217353;28;5790;-65
2023/08/12 05:50:33;;;;;;;;;;;;;;;27.01;48.28;97176.53;4220397;28;5695;-64
2023/08/12 05:52:36;;;;;;;;;;;;;;;27.02;48.07;97177.38;4220907;28;5632;-65
2023/08/12 05:54:39;;;;;;;;;;;;;;;27.04;48.04;97181.41;4207714;28;5831;-64
2023/08/12 05:56:42;;;;;;;;;;;;;;;27.05;48.09;97177.59;4209604;28;5803;-65
2023/08/12 05:58:45;;;;;;;;;;;;;;;27.07;48.09;97183.56;4220610;28;5064;-65
2023/08/12 06:00:48;;;;;;;;;;;;;;;27.09;48.04;97178.66;4215569;28;5638;-65
2023/08/12 06:02:52;;;;;;;;;;;;;;;27.11;47.95;97181.88;4212799;28;5620;-65
2023/08/12 06:04:55;;;;;;;;;;;;;;;27.15;47.79;97188.31;4220322;28;5596;-65
2023/08/12 06:06:58;;;;;;;;;;;;;;;27.20;47.82;97180.13;4220510;28;5616;-66
2023/08/12 06:09:01;;;;;;;;;;;;;;;27.24;47.56;97174.91;4220572;28;6381;-65
2023/08/12 06:11:03;;;;;;;;;;;;;;;27.30;47.71;97178.41;4220576;28;5617;-65
2023/08/12 06:13:06;;;;;;;;;;;;;;;27.31;47.52;97180.00;4219434;28;5695;-65
2023/08/12 06:15:09;;;;;;;;;;;;;;;27.30;47.59;97181.91;4219340;28;5629;-65
2023/08/12 06:17:12;;;;;;;;;;;;;;;27.29;47.75;97185.69;4216393;28;5713;-65
2023/08/12 06:19:17;;;;;;;;;;;;;;;27.31;47.74;97177.28;4220104;28;5608;-65
2023/08/12 06:21:19;;;;;;;;;;;;;;;27.33;47.78;97178.59;4220337;28;5741;-65
2023/08/12 06:23:22;;;;;;;;;;;;;;;27.34;47.83;97184.84;4220380;28;5765;-65
2023/08/12 06:25:29;;;;;;;;;;;;;;;27.33;47.87;97183.22;4220130;28;5643;-65
2023/08/12 06:27:32;;;;;;;;;;;;;;;27.33;48.10;97191.38;4214688;28;6453;-65
2023/08/12 06:29:35;;;;;;;;;;;;;;;27.33;48.05;97185.94;4219003;28;5130;-66
2023/08/12 06:31:37;;;;;;;;;;;;;;;27.31;48.22;97182.72;4207646;28;5726;-65
2023/08/12 06:33:40;;;;;;;;;;;;;;;27.31;48.15;97185.44;4219407;28;5810;-66
2023/08/12 06:36:06;;;;;;;;;;;;;;;27.32;48.32;97187.84;4209784;28;6408;-65
2023/08/12 06:38:29;;;;;;;;;;;;;;;27.34;48.18;97187.56;4206716;28;5088;-65
2023/08/12 06:40:52;;;;;;;;;;;;;;;27.34;48.04;97179.41;4220000;28;5676;-65
2023/08/12 06:42:55;;;;;;;;;;;;;;;27.35;48.05;97175.59;4218777;28;5617;-65
2023/08/12 06:45:00;;;;;;;;;;;;;;;27.37;48.32;97181.53;4219600;28;5609;-65
2023/08/12 06:47:03;;;;;;;;;;;;;;;27.38;48.17;97183.97;4215758;28;5616;-64
2023/08/12 06:49:06;;;;;;;;;;;;;;;27.42;48.27;97181.50;4219140;28;5747;-65
2023/08/12 06:51:11;;;;;;;;;;;;;;;27.44;47.97;97192.88;4219939;28;5600;-65
2023/08/12 06:53:14;;;;;;;;;;;;;;;27.45;47.92;97208.06;4208413;28;5616;-65
2023/08/12 06:55:17;;;;;;;;;;;;;;;27.44;47.92;97212.69;4219255;28;5601;-65
2023/08/12 06:57:19;;;;;;;;;;;;;;;27.46;47.88;97225.94;4219317;28;5624;-65
2023/08/12 06:59:23;;;;;;;;;;;;;;;27.46;47.71;97220.53;4219453;28;5679;-65
2023/08/12 07:01:25;;;;;;;;;;;;;;;27.47;47.71;97216.72;4217479;28;5700;-65
2023/08/12 07:03:29;;;;;;;;;;;;;;;27.47;47.62;97224.84;4219170;28;5613;-66
2023/08/12 07:05:32;;;;;;;;;;;;;;;27.45;47.54;97224.34;4218862;28;5612;-66
2023/08/12 07:07:36;;;;;;;;;;;;;;;27.44;47.56;97230.88;4219102;28;5596;-66
2023/08/12 07:09:41;;;;;;;;;;;;;;;27.44;47.64;97236.31;4219325;28;5733;-66
2023/08/12 07:11:44;;;;;;;;;;;;;;;27.42;47.48;97231.16;4210961;28;5111;-66
2023/08/12 07:13:47;;;;;;;;;;;;;;;27.43;47.40;97230.06;4234010;28;5597;-66
2023/08/12 07:15:50;;;;;;;;;;;;;;;27.44;47.55;97236.31;4214819;28;5739;-65
2023/08/12 07:17:53;;;;;;;;;;;;;;;27.45;47.20;97229.78;4218854;28;5609;-66
2023/08/12 07:19:56;;;;;;;;;;;;;;;27.44;47.54;97222.72;4218785;28;5604;-65
2023/08/12 07:21:59;;;;;;;;;;;;;;;27.46;47.40;97220.53;4219225;28;6337;-65
2023/08/12 07:24:04;;;;;;;;;;;;;;;27.47;47.32;97216.72;4218911;28;6428;-66
2023/08/12 07:26:07;;;;;;;;;;;;;;;27.45;47.52;97219.72;4219105;28;5537;-66
2023/08/12 07:28:10;;;;;;;;;;;;;;;27.45;47.47;97225.16;4218038;28;5601;-66
2023/08/12 07:30:13;;;;;;;;;;;;;;;27.45;47.43;97213.47;4213993;28;5822;-66
2023/08/12 07:32:16;;;;;;;;;;;;;;;27.47;47.49;97216.72;4212354;28;5831;-65
2023/08/12 07:34:19;;;;;;;;;;;;;;;27.46;47.61;97221.31;4206273;28;5718;-66
2023/08/12 07:36:22;;;;;;;;;;;;;;;27.45;47.96;97218.91;4215164;28;5699;-66
2023/08/12 07:38:25;;;;;;;;;;;;;;;27.44;48.03;97222.72;4218911;28;5703;-65
2023/08/12 07:40:29;;;;;;;;;;;;;;;27.44;48.05;97228.97;4216208;28;5799;-65
2023/08/12 07:42:31;;;;;;;;;;;;;;;27.46;48.12;97231.38;4216684;28;5604;-66
2023/08/12 07:44:34;;;;;;;;;;;;;;;27.47;48.31;97233.00;4218837;28;5798;-66
2023/08/12 07:46:37;;;;;;;;;;;;;;;27.45;48.43;97224.34;4209328;28;5620;-66
2023/08/12 07:48:40;;;;;;;;;;;;;;;27.46;48.70;97225.94;4216993;28;5616;-66
2023/08/12 07:50:43;;;;;;;;;;;;;;;27.47;48.82;97222.94;4211136;28;5628;-66
2023/08/12 07:52:46;;;;;;;;;;;;;;;27.47;48.77;97231.09;4211170;28;5631;-66
2023/08/12 07:54:49;;;;;;;;;;;;;;;27.50;48.52;97233.22;4217821;28;5696;-66
2023/08/12 07:56:53;;;;;;;;;;;;;;;27.51;48.31;97229.41;4216834;28;5609;-66
2023/08/12 07:58:56;;;;;;;;;;;;;;;27.50;48.43;97240.56;4217641;28;5643;-66
2023/08/12 08:00:59;;;;;;;;;;;;;;;27.52;48.31;97254.63;4211670;28;5642;-65
2023/08/12 08:03:02;;;;;;;;;;;;;;;27.51;48.28;97244.88;4216974;28;5925;-66
2023/08/12 08:05:06;;;;;;;;;;;;;;;27.51;48.53;97244.88;4206387;28;5228;-65
2023/08/12 08:07:09;;;;;;;;;;;;;;;27.47;48.88;97238.44;4218503;28;5612;-65
2023/08/12 08:09:12;;;;;;;;;;;;;;;27.45;49.12;97244.16;4218368;28;5612;-67
2023/08/12 08:11:15;;;;;;;;;;;;;;;27.42;49.57;97268.38;4217444;28;6310;-66
2023/08/12 08:13:18;;;;;;;;;;;;;;;27.40;49.63;97273.25;4215387;28;5616;-66
2023/08/12 08:15:21;;;;;;;;;;;;;;;27.37;50.26;97281.97;4216743;28;5620;-66
2023/08/12 08:17:24;;;;;;;;;;;;;;;27.35;50.04;97263.28;4202992;28;5933;-66
2023/08/12 08:19:27;;;;;;;;;;;;;;;27.34;51.53;97264.38;4212414;28;5929;-66
2023/08/12 08:21:32;;;;;;;;;;;;;;;27.27;51.63;97259.28;4220301;28;5661;-66
2023/08/12 08:23:34;;;;;;;;;;;;;;;27.22;51.37;97258.53;4213597;28;5611;-66
2023/08/12 08:25:37;;;;;;;;;;;;;;;27.21;51.53;97263.16;4212208;28;5683;-66
2023/08/12 08:27:40;;;;;;;;;;;;;;;27.21;51.94;97265.06;4203824;28;5627;-66
2023/08/12 08:29:47;;;;;;;;;;;;;;;27.18;51.83;97284.63;4201790;28;5713;-66
2023/08/12 08:31:50;;;;;;;;;;;;;;;27.12;51.87;97264.09;4208943;28;5758;-66
2023/08/12 08:33:53;;;;;;;;;;;;;;;27.04;52.25;97259.28;4211198;28;5619;-66
2023/08/12 08:35:56;;;;;;;;;;;;;;;26.96;52.33;97253.38;4215061;28;5637;-66
2023/08/12 08:37:59;;;;;;;;;;;;;;;26.89;52.51;97255.59;4214438;28;5645;-66
2023/08/12 08:40:03;;;;;;;;;;;;;;;26.85;52.39;97261.91;4212907;28;5111;-65
2023/08/12 08:42:07;;;;;;;;;;;;;;;26.87;52.50;97270.56;4216434;28;5077;-65
2023/08/12 08:44:10;;;;;;;;;;;;;;;26.91;52.37;97280.53;4204874;28;5617;-66
2023/08/12 08:46:15;;;;;;;;;;;;;;;26.94;52.59;97281.84;4208157;28;5605;-66
2023/08/12 08:48:19;;;;;;;;;;;;;;;26.97;52.69;97284.03;4216299;28;5712;-66
2023/08/12 08:50:22;;;;;;;;;;;;;;;26.99;52.65;97285.34;4223147;28;5612;-66
2023/08/12 08:52:26;;;;;;;;;;;;;;;26.95;52.73;97286.19;4213979;28;5702;-66
2023/08/12 08:54:29;;;;;;;;;;;;;;;26.91;53.14;97288.69;4216961;28;5833;-66
2023/08/12 08:56:32;;;;;;;;;;;;;;;26.91;53.12;97287.88;4215425;28;5886;-65
2023/08/12 08:58:40;;;;;;;;;;;;;;;26.94;53.26;97279.16;4209324;28;7085;-65
2023/08/12 09:00:43;;;;;;;;;;;;;;;26.99;53.07;97277.22;4205039;28;5639;-66
2023/08/12 09:02:49;;;;;;;;;;;;;;;27.03;53.63;97288.31;4215977;28;5708;-65
2023/08/12 09:04:52;;;;;;;;;;;;;;;27.07;53.26;97283.94;4215212;28;5613;-66
2023/08/12 09:06:55;;;;;;;;;;;;;;;27.10;53.52;97288.81;4207994;28;7836;-64
2023/08/12 09:08:59;;;;;;;;;;;;;;;27.14;53.35;97276.25;4216295;28;5612;-64
2023/08/12 09:11:03;;;;;;;;;;;;;;;27.18;53.51;97280.03;4213140;28;5628;-65
2023/08/12 09:13:06;;;;;;;;;;;;;;;27.22;53.63;97280.25;4210454;28;5936;-66
2023/08/12 09:15:10;;;;;;;;;;;;;;;27.24;53.79;97284.28;4212351;28;5612;-65
2023/08/12 09:17:13;;;;;;;;;;;;;;;27.28;53.69;97266.31;4216618;28;5621;-64
2023/08/12 09:19:18;;;;;;;;;;;;;;;27.31;53.44;97266.88;4217024;28;6389;-64
2023/08/12 09:21:20;;;;;;;;;;;;;;;27.31;53.53;97272.31;4217580;28;5593;-65
2023/08/12 09:23:24;;;;;;;;;;;;;;;27.32;53.62;97274.72;4216830;28;6298;-66
2023/08/12 09:25:27;;;;;;;;;;;;;;;27.34;53.50;97275.25;4214848;28;5714;-65
2023/08/12 09:27:31;;;;;;;;;;;;;;;27.36;53.46;97278.47;4216449;28;5747;-64
2023/08/12 09:29:36;;;;;;;;;;;;;;;27.37;53.58;97271.94;4215735;28;5649;-65
2023/08/12 09:31:39;;;;;;;;;;;;;;;27.39;53.42;97285.22;4216653;28;5624;-64
2023/08/12 09:33:42;;;;;;;;;;;;;;;27.41;53.29;97283.00;4213862;28;5668;-64
2023/08/12 09:35:46;;;;;;;;;;;;;;;27.43;53.21;97281.66;4216475;28;5779;-64
2023/08/12 09:37:50;;;;;;;;;;;;;;;27.45;53.27;97279.44;4210980;28;5893;-64
2023/08/12 09:39:53;;;;;;;;;;;;;;;27.46;53.11;97281.06;4199905;28;5685;-64
2023/08/12 09:41:57;;;;;;;;;;;;;;;27.49;53.22;97285.09;4208826;28;5842;-63
2023/08/12 09:44:03;;;;;;;;;;;;;;;27.51;53.13;97280.97;4216735;28;5685;-64
2023/08/12 09:46:06;;;;;;;;;;;;;;;27.54;53.19;97275.00;4216195;28;5831;-64
2023/08/12 09:48:10;;;;;;;;;;;;;;;27.58;53.24;97283.38;4217110;28;5679;-64
2023/08/12 09:50:15;;;;;;;;;;;;;;;27.61;53.31;97287.41;4217177;28;5679;-64
2023/08/12 09:52:19;;;;;;;;;;;;;;;27.61;53.19;97290.91;4217267;28;5669;-64
2023/08/12 09:54:24;;;;;;;;;;;;;;;27.62;53.23;97283.59;4217485;28;5681;-64
2023/08/12 09:56:30;;;;;;;;;;;;;;;27.63;53.05;97280.56;4217216;28;5740;-65
2023/08/12 09:58:36;;;;;;;;;;;;;;;27.62;52.80;97273.53;4216968;28;5740;-65
2023/08/12 10:00:41;;;;;;;;;;;;;;;27.64;53.03;97279.50;4217476;28;5779;-65
2023/08/12 10:02:43;;;;;;;;;;;;;;;27.63;52.48;97267.00;4217189;28;5677;-65
2023/08/12 10:04:48;;;;;;;;;;;;;;;27.63;52.64;97269.72;4217167;28;5735;-65
2023/08/12 10:06:51;;;;;;;;;;;;;;;27.63;52.61;97268.91;4217094;28;5760;-65
2023/08/12 10:08:54;;;;;;;;;;;;;;;27.63;52.58;97267.00;4217033;28;5664;-65
2023/08/12 10:10:57;;;;;;;;;;;;;;;27.65;52.82;97267.56;4217083;28;5670;-65
2023/08/12 10:13:15;;;;;;;;;;;;;;;27.65;52.76;97264.03;4216897;28;5673;-65
2023/08/12 10:15:18;;;;;;;;;;;;;;;27.65;52.68;97262.13;4217022;28;6369;-66
2023/08/12 10:17:22;;;;;;;;;;;;;;;27.66;52.68;97261.03;4217133;28;5676;-65
2023/08/12 10:19:45;;;;;;;;;;;;;;;27.71;52.90;97260.13;4208829;28;5693;-65
2023/08/12 10:21:50;;;;;;;;;;;;;;;27.72;52.86;97267.19;4217057;28;5680;-65
2023/08/12 10:23:57;;;;;;;;;;;;;;;27.71;52.94;97258.22;4216851;28;5665;-65
2023/08/12 10:26:02;;;;;;;;;;;;;;;27.70;52.64;97248.47;4217116;28;5767;-65
2023/08/12 10:28:06;;;;;;;;;;;;;;;27.71;52.49;97244.66;4216899;28;5802;-64
2023/08/12 10:30:10;;;;;;;;;;;;;;;27.70;52.43;97243.03;4217049;28;5665;-64
2023/08/12 10:32:14;;;;;;;;;;;;;;;27.71;52.38;97249.28;4216571;28;5689;-65
2023/08/12 10:34:21;;;;;;;;;;;;;;;27.71;52.37;97239.22;4216539;28;5104;-63
2023/08/12 10:36:26;;;;;;;;;;;;;;;27.71;52.37;97239.22;4218753;28;5097;-64
2023/08/12 10:38:29;;;;;;;;;;;;;;;27.71;52.27;97236.50;4219818;28;5665;-64
2023/08/12 10:40:34;;;;;;;;;;;;;;;27.72;51.48;97240.84;4219782;28;5861;-65
2023/08/12 10:42:42;;;;;;;;;;;;;;;27.72;51.32;97229.97;4207807;28;5863;-64
2023/08/12 10:44:51;;;;;;;;;;;;;;;27.74;51.03;97233.19;4202855;28;5705;-64
2023/08/12 10:46:55;;;;;;;;;;;;;;;27.76;51.02;97241.06;4205837;28;5685;-64
2023/08/12 10:49:01;;;;;;;;;;;;;;;27.76;50.76;97239.16;4204535;28;5776;-64
2023/08/12 10:51:04;;;;;;;;;;;;;;;27.80;51.21;97232.03;4213743;28;5858;-64
2023/08/12 10:53:23;;;;;;;;;;;;;;;27.83;51.45;97234.16;4211695;28;5897;-64
2023/08/12 10:55:28;;;;;;;;;;;;;;;27.84;51.34;97227.63;4207195;28;5697;-64